Richland Center, Wisconsin
Current Conditions -  °F | °C
As of 1:56 AM on Friday 19 Dec 2014 (Local Time) from KLNR Reporting Station
Overcast Overcast  
Wind Chill: 24°   Ceiling: 1600
Heat Index: 29°   Visibility: 10mi
Dew Point: 19°   Wind: 5mph
Humidity: 67%   Direction: 230°SW
Pressure: 30.3"   Gusts: NA
Location:  43.34°N, 90.39°W
Report Text: KLNR 190756Z AUTO 23004KT 10SM OVC016 M02/M07 A3030 RMK AO2 SLP263 T10171072
Loading
Personal Weather Stations






























Interactive Weather Map New forecast layout! Learn more

10-Day Weather Forecast

Advertisements
Track Severe Weather on mobile